createdAt,value
2023-03-10T00:04:35.449Z,9.27
2023-03-10T00:07:03.368Z,9.35
2023-03-10T00:09:30.941Z,8.35
2023-03-10T00:11:58.773Z,8.50
2023-03-10T00:14:26.475Z,9.02
2023-03-10T00:16:54.760Z,11.10
2023-03-10T00:19:23.512Z,8.55
2023-03-10T00:21:51.909Z,9.40
2023-03-10T00:24:19.525Z,10.00
2023-03-10T00:26:51.510Z,11.90
2023-03-10T00:29:19.447Z,10.13
2023-03-10T00:31:48.784Z,9.02
2023-03-10T00:34:16.687Z,8.48
2023-03-10T00:36:44.958Z,10.18
2023-03-10T00:39:13.076Z,10.30
2023-03-10T00:41:41.232Z,10.18
2023-03-10T00:44:09.986Z,10.00
2023-03-10T00:46:39.338Z,9.55
2023-03-10T00:49:08.148Z,10.32
2023-03-10T00:51:36.367Z,9.25
2023-03-10T00:54:04.185Z,8.93
2023-03-10T00:56:32.085Z,8.50
2023-03-10T00:59:00.846Z,8.32
2023-03-10T01:01:33.301Z,9.30
2023-03-10T01:04:02.904Z,9.45
2023-03-10T01:06:32.101Z,12.20
2023-03-10T01:09:00.026Z,8.10
2023-03-10T01:11:30.001Z,6.70
2023-03-10T01:13:59.096Z,8.88
2023-03-10T01:16:28.024Z,8.07
2023-03-10T01:18:56.580Z,8.38
2023-03-10T01:21:26.122Z,8.82
2023-03-10T01:23:54.177Z,11.13
2023-03-10T01:26:25.374Z,8.45
2023-03-10T01:28:53.380Z,9.20
2023-03-10T01:31:21.493Z,10.23
2023-03-10T01:33:49.208Z,8.20
2023-03-10T01:36:23.030Z,9.05
2023-03-10T01:38:51.190Z,8.77
2023-03-10T01:41:19.251Z,8.73
2023-03-10T01:43:48.745Z,9.75
2023-03-10T01:46:35.629Z,10.00
2023-03-10T01:49:23.841Z,9.68
2023-03-10T01:51:54.915Z,8.63
2023-03-10T01:56:52.511Z,9.20
2023-03-10T01:59:21.169Z,9.85
2023-03-10T02:01:53.300Z,14.60
2023-03-10T02:04:44.999Z,10.15
2023-03-10T02:07:13.336Z,10.05
2023-03-10T02:09:44.577Z,11.25
2023-03-10T02:12:13.922Z,10.82
2023-03-10T02:14:42.076Z,12.70
2023-03-10T02:17:11.356Z,11.00
2023-03-10T02:19:55.535Z,10.93
2023-03-10T02:22:26.520Z,11.02
2023-03-10T02:24:54.442Z,10.63
2023-03-10T02:27:26.521Z,11.68
2023-03-10T02:29:59.850Z,10.13
2023-03-10T02:32:34.811Z,12.77
2023-03-10T02:35:02.712Z,14.15
2023-03-10T02:37:34.036Z,15.52
2023-03-10T02:40:02.621Z,14.02
2023-03-10T02:42:33.681Z,12.23
2023-03-10T02:45:02.119Z,14.73
2023-03-10T02:47:30.351Z,12.10
2023-03-10T02:49:57.995Z,13.70
2023-03-10T02:52:46.690Z,13.18
2023-03-10T02:55:18.808Z,13.38
2023-03-10T02:57:47.606Z,12.20
2023-03-10T03:00:15.985Z,14.80
2023-03-10T03:02:43.677Z,12.05
2023-03-10T03:05:13.305Z,11.18
2023-03-10T03:07:41.909Z,13.52
2023-03-10T03:10:10.358Z,11.65
2023-03-10T03:12:38.361Z,13.13
2023-03-10T03:15:06.588Z,11.13
2023-03-10T03:17:35.390Z,12.77
2023-03-10T03:20:11.918Z,14.48
2023-03-10T03:22:41.165Z,14.98
2023-03-10T03:25:10.049Z,17.80
2023-03-10T03:27:38.474Z,13.63
2023-03-10T03:30:09.708Z,15.57
2023-03-10T03:32:38.750Z,16.90
2023-03-10T03:35:11.113Z,15.52
2023-03-10T03:37:38.850Z,17.85
2023-03-10T03:40:16.472Z,21.20
2023-03-10T03:45:17.690Z,23.08
2023-03-10T03:47:47.494Z,22.15
2023-03-10T03:50:16.345Z,20.55
2023-03-10T03:52:45.446Z,23.88
2023-03-10T03:55:16.007Z,21.60
2023-03-10T03:57:45.234Z,19.52
2023-03-10T04:00:15.784Z,25.95
2023-03-10T04:02:47.533Z,23.65
2023-03-10T04:05:15.513Z,23.05
2023-03-10T04:07:44.041Z,23.90
2023-03-10T04:10:15.863Z,22.53
2023-03-10T04:12:43.651Z,23.33
2023-03-10T04:15:12.897Z,25.50
2023-03-10T04:17:41.196Z,26.52
2023-03-10T04:20:09.558Z,24.15
2023-03-10T04:22:41.994Z,25.52
2023-03-10T04:25:11.369Z,26.15
2023-03-10T04:27:39.256Z,27.08
2023-03-10T04:30:08.629Z,26.88
2023-03-10T04:32:39.137Z,31.13
2023-03-10T04:35:08.444Z,34.20
2023-03-10T04:37:36.509Z,30.27
2023-03-10T04:40:08.609Z,28.70
2023-03-10T04:42:37.500Z,29.98
2023-03-10T04:45:05.461Z,27.75
2023-03-10T04:47:33.392Z,28.58
2023-03-10T04:50:01.611Z,25.67
2023-03-10T04:52:32.243Z,27.25
2023-03-10T04:55:00.510Z,30.13
2023-03-10T04:57:28.228Z,31.10
2023-03-10T04:59:56.160Z,30.05
2023-03-10T05:02:28.480Z,33.17
2023-03-10T05:04:57.234Z,33.03
2023-03-10T05:07:25.149Z,31.30
2023-03-10T05:09:53.903Z,28.35
2023-03-10T05:12:25.041Z,33.25
2023-03-10T05:14:55.353Z,33.45
2023-03-10T05:17:23.329Z,27.67
2023-03-10T05:19:55.117Z,29.98
2023-03-10T05:22:23.880Z,31.73
2023-03-10T05:24:53.244Z,35.20
2023-03-10T05:27:22.792Z,30.88
2023-03-10T05:32:27.790Z,27.77
2023-03-10T05:34:56.562Z,31.25
2023-03-10T05:37:24.975Z,30.65
2023-03-10T05:39:53.615Z,30.30
2023-03-10T05:42:23.677Z,26.92
2023-03-10T05:44:52.703Z,27.42
2023-03-10T05:47:21.188Z,28.80
2023-03-10T05:49:49.250Z,24.67
2023-03-10T05:52:24.027Z,28.63
2023-03-10T05:54:55.767Z,28.00
2023-03-10T05:57:23.731Z,24.60
2023-03-10T05:59:52.577Z,26.60
2023-03-10T06:02:21.831Z,29.40
2023-03-10T06:04:49.744Z,28.50
2023-03-10T06:07:17.827Z,27.63
2023-03-10T06:09:45.999Z,24.35
2023-03-10T06:12:13.766Z,24.63
2023-03-10T06:14:41.359Z,22.67
2023-03-10T06:17:09.311Z,19.27
2023-03-10T06:19:37.260Z,17.80
2023-03-10T06:22:05.296Z,16.77
2023-03-10T06:24:33.945Z,18.05
2023-03-10T06:27:02.078Z,16.10
2023-03-10T06:29:29.940Z,21.88
2023-03-10T06:31:57.765Z,16.30
2023-03-10T06:34:25.495Z,19.48
2023-03-10T06:36:55.695Z,17.70
2023-03-10T06:39:26.648Z,17.50
2023-03-10T06:41:56.047Z,17.75
2023-03-10T06:44:23.805Z,19.00
2023-03-10T06:46:52.627Z,17.25
2023-03-10T06:49:21.359Z,18.98
2023-03-10T06:51:49.759Z,18.10
2023-03-10T06:54:17.677Z,18.45
2023-03-10T06:56:45.370Z,21.45
2023-03-10T06:59:13.281Z,17.70
2023-03-10T07:01:41.291Z,18.27
2023-03-10T07:04:09.151Z,20.05
2023-03-10T07:06:37.014Z,21.30
2023-03-10T07:09:05.809Z,19.73
2023-03-10T07:11:34.013Z,18.05
2023-03-10T07:14:02.491Z,17.15
2023-03-10T07:16:31.831Z,18.67
2023-03-10T07:18:59.619Z,20.35
2023-03-10T07:21:27.537Z,24.05
2023-03-10T07:23:58.333Z,19.02
2023-03-10T07:26:26.184Z,22.27
2023-03-10T07:28:54.615Z,26.20
2023-03-10T07:31:22.775Z,26.45
2023-03-10T07:33:51.138Z,28.85
2023-03-10T07:36:21.615Z,30.75
2023-03-10T07:38:49.426Z,27.70
2023-03-10T07:41:18.463Z,30.13
2023-03-10T07:43:46.507Z,28.45
2023-03-10T07:46:15.327Z,30.42
2023-03-10T07:48:43.365Z,24.85
2023-03-10T07:51:13.044Z,24.45
2023-03-10T07:53:40.947Z,22.42
2023-03-10T07:56:09.834Z,27.42
2023-03-10T07:58:38.055Z,20.88
2023-03-10T08:01:07.050Z,24.42
2023-03-10T08:03:34.820Z,21.20
2023-03-10T08:06:05.772Z,22.48
2023-03-10T08:08:33.513Z,23.40
2023-03-10T08:11:05.414Z,19.40
2023-03-10T08:13:34.067Z,22.83
2023-03-10T08:16:02.127Z,20.90
2023-03-10T08:18:30.602Z,17.73
2023-03-10T08:20:58.888Z,22.15
2023-03-10T08:23:27.116Z,19.58
2023-03-10T08:25:54.805Z,24.17
2023-03-10T08:28:23.117Z,25.85
2023-03-10T08:31:04.085Z,26.98
2023-03-10T08:33:34.074Z,26.17
2023-03-10T08:36:08.729Z,25.75
2023-03-10T08:38:39.894Z,29.20
2023-03-10T08:41:15.759Z,26.00
2023-03-10T08:43:44.986Z,24.70
2023-03-10T08:46:15.943Z,20.45
2023-03-10T08:48:43.819Z,21.13
2023-03-10T08:51:15.454Z,18.35
2023-03-10T08:53:43.955Z,18.67
2023-03-10T08:56:12.013Z,17.35
2023-03-10T08:58:39.691Z,20.23
2023-03-10T09:01:07.300Z,15.55
2023-03-10T09:03:39.797Z,17.42
2023-03-10T09:06:08.195Z,16.70
2023-03-10T09:08:36.035Z,16.70
2023-03-10T09:11:03.873Z,16.73
2023-03-10T09:13:31.625Z,19.42
2023-03-10T09:15:59.686Z,17.85
2023-03-10T09:18:27.438Z,18.58
2023-03-10T09:20:56.166Z,18.20
2023-03-10T09:23:24.241Z,16.98
2023-03-10T09:25:52.906Z,15.80
2023-03-10T09:28:22.946Z,18.20
2023-03-10T09:30:55.199Z,17.70
2023-03-10T09:33:23.536Z,18.30
2023-03-10T09:36:05.847Z,16.50
2023-03-10T09:38:34.817Z,19.83
2023-03-10T09:41:38.596Z,18.02
2023-03-10T09:44:07.814Z,18.00
2023-03-10T09:47:02.018Z,14.30
2023-03-10T09:49:52.064Z,16.27
2023-03-10T09:54:55.555Z,12.70
2023-03-10T09:57:24.356Z,17.20
2023-03-10T09:59:56.609Z,17.30
2023-03-10T10:02:31.953Z,15.02
2023-03-10T10:05:04.367Z,14.95
2023-03-10T10:07:40.606Z,13.52
2023-03-10T10:10:11.228Z,15.30
2023-03-10T10:15:17.655Z,15.68
2023-03-10T10:17:55.213Z,13.73
2023-03-10T10:20:29.555Z,16.73
2023-03-10T10:22:57.308Z,16.63
2023-03-10T10:25:26.409Z,19.65
2023-03-10T10:27:56.304Z,15.70
2023-03-10T10:30:40.589Z,19.05
2023-03-10T10:33:12.566Z,16.75
2023-03-10T10:35:42.232Z,15.25
2023-03-10T10:38:16.485Z,15.68
2023-03-10T10:40:59.901Z,18.13
2023-03-10T10:43:30.600Z,15.55
2023-03-10T10:46:04.860Z,16.23
2023-03-10T10:48:45.344Z,16.63
2023-03-10T10:51:27.305Z,17.70
2023-03-10T10:53:56.157Z,16.80
2023-03-10T10:56:24.756Z,17.90
2023-03-10T10:59:03.369Z,18.25
2023-03-10T11:01:52.529Z,17.48
2023-03-10T11:04:21.285Z,18.75
2023-03-10T11:06:49.458Z,27.90
2023-03-10T11:09:23.545Z,22.73
2023-03-10T11:11:54.767Z,20.67
2023-03-10T11:14:41.424Z,23.52
2023-03-10T11:17:29.261Z,21.08
2023-03-10T11:20:00.230Z,22.88
2023-03-10T11:22:34.493Z,24.15
2023-03-10T11:25:26.937Z,25.40
2023-03-10T11:28:10.625Z,25.13
2023-03-10T11:30:38.997Z,26.52
2023-03-10T11:33:09.997Z,25.10
2023-03-10T11:35:44.178Z,22.50
2023-03-10T11:38:15.001Z,25.60
2023-03-10T11:40:52.702Z,29.02
2023-03-10T11:43:29.602Z,24.25
2023-03-10T11:46:02.385Z,25.55
2023-03-10T11:48:33.152Z,27.45
2023-03-10T11:51:04.262Z,32.03
2023-03-10T11:53:46.514Z,31.05
2023-03-10T11:56:15.753Z,29.55
2023-03-10T11:58:53.513Z,25.63
2023-03-10T12:01:38.423Z,27.23
2023-03-10T12:04:17.450Z,29.33
2023-03-10T12:06:48.968Z,23.20
2023-03-10T12:09:19.252Z,25.25
2023-03-10T12:11:47.195Z,23.23
2023-03-10T12:14:24.545Z,21.13
2023-03-10T12:16:54.194Z,15.30
2023-03-10T12:19:22.910Z,14.27
2023-03-10T12:22:09.796Z,11.57
2023-03-10T12:24:47.864Z,10.38
2023-03-10T12:27:16.024Z,5.32
2023-03-10T12:29:47.326Z,6.25
2023-03-10T12:32:33.961Z,4.63
2023-03-10T12:35:21.577Z,7.20
2023-03-10T12:37:49.552Z,4.15
2023-03-10T12:40:36.717Z,7.25
2023-03-10T12:43:35.769Z,3.42
2023-03-10T12:46:04.036Z,4.13
2023-03-10T12:48:35.598Z,5.82
2023-03-10T12:51:07.579Z,3.67
2023-03-10T12:53:55.834Z,4.65
2023-03-10T12:56:34.388Z,4.68
2023-03-10T12:59:22.561Z,2.83
2023-03-10T13:01:55.999Z,2.75
2023-03-10T13:04:24.732Z,4.65
2023-03-10T13:07:07.273Z,4.07
2023-03-10T13:09:39.295Z,3.78
2023-03-10T13:12:13.441Z,4.57
2023-03-10T13:14:42.203Z,6.10
2023-03-10T13:17:23.583Z,3.67
2023-03-10T13:20:04.325Z,4.05
2023-03-10T13:22:32.838Z,2.67
2023-03-10T13:25:05.151Z,3.65
2023-03-10T13:27:38.733Z,4.70
2023-03-10T13:30:21.220Z,3.13
2023-03-10T13:33:03.185Z,2.33
2023-03-10T13:35:39.660Z,2.80
2023-03-10T13:38:40.223Z,3.30
2023-03-10T13:43:47.792Z,3.55
2023-03-10T13:46:34.919Z,4.70
2023-03-10T13:49:09.176Z,3.95
2023-03-10T13:51:38.976Z,3.65
2023-03-10T13:54:26.094Z,3.60
2023-03-10T13:57:09.202Z,4.85
2023-03-10T13:59:40.663Z,3.17
2023-03-10T14:02:27.425Z,3.25
2023-03-10T14:04:56.301Z,5.25
2023-03-10T14:07:28.502Z,4.25
2023-03-10T14:10:06.501Z,4.60
2023-03-10T14:13:14.827Z,3.22
2023-03-10T14:15:54.636Z,4.20
2023-03-10T14:18:28.271Z,4.22
2023-03-10T14:20:57.516Z,3.38
2023-03-10T14:23:27.901Z,3.63
2023-03-10T14:25:56.780Z,4.55
2023-03-10T14:28:28.828Z,4.78
2023-03-10T14:30:56.799Z,5.03
2023-03-10T14:33:25.282Z,6.80
2023-03-10T14:35:53.139Z,4.57
2023-03-10T14:38:23.539Z,9.68
2023-03-10T14:43:21.057Z,4.95
2023-03-10T14:45:51.744Z,9.05
2023-03-10T14:48:21.644Z,3.95
2023-03-10T14:50:50.802Z,4.13
2023-03-10T14:53:20.043Z,4.25
2023-03-10T14:55:51.784Z,3.90
2023-03-10T14:58:23.428Z,4.47
2023-03-10T15:00:51.969Z,3.35
2023-03-10T15:03:23.713Z,7.03
2023-03-10T15:05:53.751Z,3.60
2023-03-10T15:08:25.585Z,4.07
2023-03-10T15:10:54.136Z,4.82
2023-03-10T15:13:25.840Z,4.40
2023-03-10T15:15:54.065Z,7.38
2023-03-10T15:18:23.708Z,6.13
2023-03-10T15:20:52.880Z,6.23
2023-03-10T15:23:22.674Z,7.03
2023-03-10T15:25:51.246Z,7.22
2023-03-10T15:28:19.217Z,7.30
2023-03-10T15:30:47.248Z,7.32
2023-03-10T15:33:15.743Z,7.55
2023-03-10T15:35:44.035Z,9.80
2023-03-10T15:38:14.222Z,7.35
2023-03-10T15:40:42.420Z,11.05
2023-03-10T15:43:10.422Z,10.48
2023-03-10T15:45:40.977Z,10.18
2023-03-10T15:48:09.026Z,12.90
2023-03-10T15:50:42.062Z,12.50
2023-03-10T15:53:09.798Z,10.35
2023-03-10T15:55:41.068Z,9.90
2023-03-10T15:58:09.665Z,9.07
2023-03-10T16:00:38.369Z,7.38
2023-03-10T16:03:06.249Z,8.30
2023-03-10T16:05:35.647Z,6.15
2023-03-10T16:08:06.304Z,5.93
2023-03-10T16:10:36.028Z,4.95
2023-03-10T16:13:04.528Z,4.88
2023-03-10T16:15:32.363Z,4.07
2023-03-10T16:18:00.089Z,7.78
2023-03-10T16:20:29.130Z,8.30
2023-03-10T16:22:57.860Z,7.50
2023-03-10T16:25:25.573Z,8.40
2023-03-10T16:27:53.815Z,9.18
2023-03-10T16:30:22.650Z,9.98
2023-03-10T16:32:54.228Z,8.10
2023-03-10T16:35:22.797Z,7.20
2023-03-10T16:37:51.030Z,6.82
2023-03-10T16:40:18.920Z,10.40
2023-03-10T16:42:46.675Z,8.95
2023-03-10T16:45:14.641Z,9.90
2023-03-10T16:47:44.289Z,8.57
2023-03-10T16:50:14.442Z,8.20
2023-03-10T16:52:42.832Z,10.20
2023-03-10T16:55:17.470Z,10.65
2023-03-10T16:57:45.972Z,10.88
2023-03-10T17:00:14.662Z,8.93
2023-03-10T17:02:42.298Z,9.77
2023-03-10T17:05:10.409Z,10.30
2023-03-10T17:07:46.449Z,13.50
2023-03-10T17:10:22.548Z,12.02
2023-03-10T17:12:53.002Z,11.65
2023-03-10T17:15:22.611Z,14.50
2023-03-10T17:17:53.464Z,13.38
2023-03-10T17:20:23.443Z,15.88
2023-03-10T17:22:51.079Z,15.02
2023-03-10T17:25:21.595Z,12.52
2023-03-10T17:27:51.573Z,13.00
2023-03-10T17:30:23.742Z,12.23
2023-03-10T17:32:55.763Z,11.52
2023-03-10T17:35:23.761Z,10.23
2023-03-10T17:37:54.240Z,8.32
2023-03-10T17:40:26.746Z,6.35
2023-03-10T17:42:54.348Z,7.85
2023-03-10T17:45:22.750Z,6.13
2023-03-10T17:47:54.563Z,4.65
2023-03-10T17:50:23.908Z,3.67
2023-03-10T17:52:52.507Z,3.53
2023-03-10T17:55:21.202Z,2.55
2023-03-10T17:57:51.156Z,2.70
2023-03-10T18:00:19.833Z,1.80
2023-03-10T18:02:47.900Z,2.28
2023-03-10T18:05:15.894Z,1.80
2023-03-10T18:07:44.169Z,1.10
2023-03-10T18:10:12.871Z,1.52
2023-03-10T18:12:40.930Z,1.15
2023-03-10T18:15:09.435Z,2.28
2023-03-10T18:17:37.414Z,3.38
2023-03-10T18:20:07.663Z,2.88
2023-03-10T18:22:35.378Z,2.85
2023-03-10T18:25:03.662Z,3.08
2023-03-10T18:27:34.026Z,5.22
2023-03-10T18:32:30.271Z,4.57
2023-03-10T18:34:59.906Z,2.95
2023-03-10T18:37:33.512Z,4.82
2023-03-10T18:40:01.872Z,3.42
2023-03-10T18:42:29.885Z,2.50
2023-03-10T18:45:00.480Z,5.82
2023-03-10T18:47:28.251Z,2.58
2023-03-10T18:49:56.384Z,1.92
2023-03-10T18:52:24.392Z,3.20
2023-03-10T18:54:53.946Z,1.70
2023-03-10T18:57:22.309Z,2.28
2023-03-10T18:59:52.657Z,1.83
2023-03-10T19:02:21.118Z,3.85
2023-03-10T19:04:49.982Z,7.28
2023-03-10T19:07:22.833Z,2.90
2023-03-10T19:09:54.409Z,4.95
2023-03-10T19:12:25.349Z,2.42
2023-03-10T19:14:54.733Z,4.28
2023-03-10T19:17:26.797Z,3.40
2023-03-10T19:19:56.214Z,2.58
2023-03-10T19:22:25.487Z,3.22
2023-03-10T19:24:54.380Z,2.50
2023-03-10T19:27:25.639Z,3.78
2023-03-10T19:29:54.986Z,5.85
2023-03-10T19:32:27.195Z,5.40
2023-03-10T19:34:56.120Z,6.40
2023-03-10T19:37:23.847Z,6.78
2023-03-10T19:39:52.547Z,12.05
2023-03-10T19:42:24.682Z,6.70
2023-03-10T19:44:53.384Z,8.50
2023-03-10T19:47:22.219Z,12.40
2023-03-10T19:49:49.939Z,7.68
2023-03-10T19:52:18.795Z,7.25
2023-03-10T19:54:47.694Z,8.00
2023-03-10T19:57:16.415Z,6.00
2023-03-10T19:59:44.314Z,9.70
2023-03-10T20:02:14.799Z,5.82
2023-03-10T20:07:10.459Z,10.85
2023-03-10T20:09:38.204Z,13.93
2023-03-10T20:12:06.092Z,11.65
2023-03-10T20:14:36.820Z,13.90
2023-03-10T20:17:04.587Z,12.43
2023-03-10T20:19:32.647Z,13.13
2023-03-10T20:22:00.379Z,16.23
2023-03-10T20:24:28.124Z,13.82
2023-03-10T20:26:58.510Z,22.10
2023-03-10T20:31:55.444Z,11.63
2023-03-10T20:34:26.413Z,14.57
2023-03-10T20:36:54.445Z,10.80
2023-03-10T20:39:22.596Z,13.88
2023-03-10T20:41:54.637Z,12.05
2023-03-10T20:44:26.130Z,13.52
2023-03-10T20:46:54.204Z,19.13
2023-03-10T20:49:25.518Z,7.97
2023-03-10T20:51:54.043Z,10.23
2023-03-10T20:54:22.492Z,16.35
2023-03-10T20:56:51.022Z,11.05
2023-03-10T20:59:19.616Z,8.75
2023-03-10T21:01:47.827Z,11.40
2023-03-10T21:04:16.206Z,8.10
2023-03-10T21:06:44.122Z,13.23
2023-03-10T21:09:12.610Z,11.63
2023-03-10T21:11:41.539Z,6.63
2023-03-10T21:14:09.758Z,26.58
2023-03-10T21:16:39.834Z,11.88
2023-03-10T21:21:36.696Z,14.68
2023-03-10T21:24:05.621Z,11.85
2023-03-10T21:26:33.724Z,11.35
2023-03-10T21:29:04.492Z,14.95
2023-03-10T21:34:00.311Z,14.57
2023-03-10T21:36:28.467Z,7.82
2023-03-10T21:38:56.768Z,13.63
2023-03-10T21:41:25.918Z,5.90
2023-03-10T21:43:54.672Z,15.10
2023-03-10T21:46:27.606Z,14.20
2023-03-10T21:48:55.975Z,8.80
2023-03-10T21:51:25.733Z,9.55
2023-03-10T21:53:55.142Z,14.38
2023-03-10T21:56:26.432Z,9.87
2023-03-10T21:58:54.333Z,12.02
2023-03-10T22:01:23.025Z,16.50
2023-03-10T22:03:53.406Z,15.95
2023-03-10T22:06:24.605Z,19.42
2023-03-10T22:08:52.866Z,17.92
2023-03-10T22:11:23.735Z,15.35
2023-03-10T22:13:54.927Z,13.90
2023-03-10T22:16:27.379Z,12.98
2023-03-10T22:18:55.852Z,11.82
2023-03-10T22:21:23.928Z,10.90
2023-03-10T22:23:52.604Z,12.32
2023-03-10T22:26:23.141Z,15.10
2023-03-10T22:28:52.816Z,12.23
2023-03-10T22:31:22.838Z,9.38
2023-03-10T22:33:51.306Z,10.13
2023-03-10T22:36:19.319Z,13.77
2023-03-10T22:38:47.526Z,11.02
2023-03-10T22:41:15.805Z,17.15
2023-03-10T22:43:47.045Z,11.82
2023-03-10T22:48:46.359Z,13.90
2023-03-10T22:51:15.852Z,14.30
2023-03-10T22:53:47.731Z,8.90
2023-03-10T22:56:16.411Z,13.40
2023-03-10T22:58:44.858Z,12.05
2023-03-10T23:01:12.517Z,9.48
2023-03-10T23:03:41.749Z,10.82
2023-03-10T23:06:09.418Z,17.58
2023-03-10T23:08:37.913Z,11.23
2023-03-10T23:11:09.770Z,14.32
2023-03-10T23:13:38.214Z,12.02
2023-03-10T23:16:06.857Z,6.38
2023-03-10T23:18:36.305Z,18.63
2023-03-10T23:21:05.149Z,11.27
2023-03-10T23:23:33.440Z,13.23
2023-03-10T23:26:03.323Z,10.90
2023-03-10T23:28:32.412Z,20.13
2023-03-10T23:31:01.138Z,8.25
2023-03-10T23:33:29.170Z,11.48
2023-03-10T23:35:57.267Z,14.80
2023-03-10T23:38:26.015Z,10.68
2023-03-10T23:40:55.517Z,8.82
2023-03-10T23:43:23.626Z,9.47
2023-03-10T23:45:52.505Z,11.30
2023-03-10T23:48:25.643Z,13.23
2023-03-10T23:50:54.500Z,12.90
2023-03-10T23:53:22.694Z,10.75
2023-03-10T23:55:57.215Z,13.05
2023-03-10T23:58:25.049Z,9.60
